Pagrindinis puslapis
METAR-TAF:

METAR-TAF

Oro uostai :

Sivasas, Turkija

platuma: 39-45N, ilguma: 037-01E, Aukštis: 1285 m

Dabartinis oras

Ataskaita buvo paskelbta 1 valandą ir 2 minutes, ne 01:50 UTC
Vėjas 9 kt iš Vakarų/Šiaurės Vakarų
Temperatūra -1°C
Drėgmė 100%
Slėgis 1008 hPa
Matomumas: 6000 m
Išsisklaidę debesys ne aukštis 100 ft
Su prošvaistėmis ne aukštis 2500 ft
Apsiniaukę ne aukštis 6000 ft
sniegas

METAR: LTAR 010150Z 29009KT 6000 -SN SCT001 BKN025 OVC060 M01/M01 Q1008

Laikas: 05:52 (02:52 UTC)

Prognozė

Ataskaita buvo paskelbta 1 valandą ir 12 minutes, ne 01:40 UTC
Prognozė galioja nuo 01 metu 03 UTC su 01 metu 12 UTC
Vėjas 14 kt iš Vakarų
Matomumas: 4000 m
Išsisklaidę debesys ne aukštis 300 ft
Su prošvaistėmis ne aukštis 2500 ft
Apsiniaukę ne aukštis 6000 ft
sniegas
Tapsmas
nuo 01 metu 04 UTC su 01 metu 07 UTC
Matomumas: 7000 m
Išsisklaidę debesys ne aukštis 2500 ft
Su prošvaistėmis ne aukštis 7000 ft
lietus

TAF: LTAR 010140Z 0103/0112 28014KT 4000 -SN SCT003 BKN025 OVC060 BECMG 0104/0107 7000 -RA SCT025 BKN070

Orai ataskaitas ir orų prognozės (METAR, TAF).

turimą stotys yra geltonos ir raudonos taškus žemėlapyje.

Perkelti pele per norėdami pamatyti stoties vardą.

Tada spustelėkite, norėdami matyti oro stebėjimo ir prognozės.

Norėdami pakeisti žemėlapį: spustelėkite ant žalios mygtukų su juodo kryžiaus žemyn,; žalią mygtuką su brūkšneliu, jei norite nutolinti; arba žalių rodyklių gretimoms žemėlapius.


METAR-TAF: